Marne, Ohio
Current Conditions -  °F | °C
As of 1:54 AM on Thursday 23 Oct 2014 (Local Time) from KVTA Reporting Station
Few Clouds Few Clouds  
Wind Chill: 38°   Ceiling: Unl
Heat Index: 42°   Visibility: 10mi
Dew Point: 39°   Wind: 6mph
Humidity: 89%   Direction: 320°NW
Pressure: 30.22"   Gusts: NA
Location:  40.1181°N, 82.3726°W
Report Text: KVTA 230554Z AUTO 32005KT 10SM FEW041 06/04 A3022 RMK AO2 SLP235 T00560039 10100 20050 55008
Loading
Personal Weather Stations






























Interactive Weather Map
Tropical Storm Tracking
New forecast layout! Learn more

10-Day Weather Forecast

Advertisements
Track Severe Weather on mobile